Time;durP1;ratioP1;P1;durP2;ratioP2;P2;SDS_P1;SDS_P2;PMS_P1;PMS_P2;Temp;Humidity;BMP_temperature;BMP_pressure;BME280_temperature;BME280_humidity;BME280_pressure;Samples;Min_cycle;Max_cycle;Signal;HPM_P1;HPM_P2
2022/05/18 00:02:06;;;;;;;;;7.00;4.00;;;;;;;;5050904;28;45504;-67
2022/05/18 00:04:31;;;;;;;;;5.75;5.75;;;;;;;;5053447;28;45559;-67
2022/05/18 00:06:57;;;;;;;;;6.00;5.00;;;;;;;;5038075;28;45202;-67
2022/05/18 00:09:22;;;;;;;;;6.25;5.25;;;;;;;;5059142;28;46259;-67
2022/05/18 00:11:47;;;;;;;;;5.75;5.75;;;;;;;;5059637;28;45505;-67
2022/05/18 00:14:12;;;;;;;;;6.00;5.00;;;;;;;;5059891;28;45404;-67
2022/05/18 00:16:38;;;;;;;;;6.00;6.00;;;;;;;;5060226;27;45455;-67
2022/05/18 00:19:03;;;;;;;;;7.00;6.00;;;;;;;;5056683;28;47089;-67
2022/05/18 00:21:30;;;;;;;;;6.00;5.50;;;;;;;;5059834;27;45394;-67
2022/05/18 00:23:56;;;;;;;;;7.00;6.00;;;;;;;;5060761;28;45466;-67
2022/05/18 00:26:22;;;;;;;;;6.00;6.00;;;;;;;;5059604;27;45617;-67
2022/05/18 00:28:47;;;;;;;;;7.00;6.00;;;;;;;;5059812;28;47133;-67
2022/05/18 00:31:13;;;;;;;;;6.00;5.00;;;;;;;;5057877;28;45447;-67
2022/05/18 00:33:38;;;;;;;;;5.00;5.00;;;;;;;;5057645;28;45707;-67
2022/05/18 00:36:03;;;;;;;;;23.75;18.75;;;;;;;;5061209;28;45330;-67
2022/05/18 00:38:28;;;;;;;;;28.75;27.50;;;;;;;;5059710;28;47042;-67
2022/05/18 00:40:54;;;;;;;;;8.25;7.75;;;;;;;;5059923;28;49071;-67
2022/05/18 00:43:34;;;;;;;;;5.50;5.50;;;;;;;;5070907;28;45503;-67
2022/05/18 00:46:01;;;;;;;;;6.25;5.75;;;;;;;;5040727;28;45379;-67
2022/05/18 00:48:27;;;;;;;;;6.75;6.50;;;;;;;;5059793;28;47326;-67
2022/05/18 00:50:53;;;;;;;;;5.00;5.00;;;;;;;;5057995;28;45431;-67
2022/05/18 00:53:21;;;;;;;;;5.75;5.75;;;;;;;;5059727;27;45291;-66
2022/05/18 00:55:52;;;;;;;;;3.25;2.50;;;;;;;;5057732;28;45303;-66
2022/05/18 00:58:17;;;;;;;;;5.25;5.00;;;;;;;;5070937;27;46374;-67
2022/05/18 01:00:43;;;;;;;;;6.00;6.00;;;;;;;;5060803;28;45472;-67
2022/05/18 01:03:13;;;;;;;;;6.75;5.50;;;;;;;;5061571;28;45346;-67
2022/05/18 01:05:39;;;;;;;;;5.50;5.50;;;;;;;;5057581;28;45528;-67
2022/05/18 01:08:04;;;;;;;;;6.00;5.00;;;;;;;;5058858;28;45405;-67
2022/05/18 01:10:30;;;;;;;;;7.00;7.00;;;;;;;;5058538;28;45473;-67
2022/05/18 01:12:56;;;;;;;;;4.00;4.00;;;;;;;;5054943;28;45542;-67
2022/05/18 01:15:22;;;;;;;;;4.00;3.50;;;;;;;;5068503;28;45302;-67
2022/05/18 01:17:50;;;;;;;;;5.25;5.00;;;;;;;;5058907;28;45493;-67
2022/05/18 01:20:21;;;;;;;;;7.00;5.00;;;;;;;;5060462;28;45356;-67
2022/05/18 01:22:46;;;;;;;;;6.50;6.50;;;;;;;;5058690;28;45458;-67
2022/05/18 01:25:23;;;;;;;;;5.75;5.75;;;;;;;;5057115;28;45448;-66
2022/05/18 01:27:49;;;;;;;;;5.00;4.00;;;;;;;;5054868;28;47223;-66
2022/05/18 01:30:14;;;;;;;;;5.00;5.00;;;;;;;;5060899;28;45366;-66
2022/05/18 01:32:44;;;;;;;;;6.25;5.75;;;;;;;;5048383;28;45458;-67
2022/05/18 01:35:10;;;;;;;;;5.00;5.00;;;;;;;;5064153;28;45348;-67
2022/05/18 01:37:35;;;;;;;;;5.00;5.00;;;;;;;;5058597;28;46004;-67
2022/05/18 01:40:03;;;;;;;;;5.50;4.25;;;;;;;;5054970;28;47065;-67
2022/05/18 01:42:36;;;;;;;;;4.00;4.00;;;;;;;;5059036;28;45205;-67
2022/05/18 01:45:01;;;;;;;;;8.50;5.00;;;;;;;;5060474;28;45350;-67
2022/05/18 01:47:32;;;;;;;;;7.50;6.50;;;;;;;;5058075;28;46427;-67
2022/05/18 01:49:57;;;;;;;;;7.75;7.00;;;;;;;;5058711;28;45591;-67
2022/05/18 01:52:22;;;;;;;;;5.50;5.00;;;;;;;;5056903;28;45865;-67
2022/05/18 01:54:48;;;;;;;;;5.50;5.50;;;;;;;;5054068;28;45398;-67
2022/05/18 01:57:13;;;;;;;;;7.00;7.00;;;;;;;;5060498;28;45476;-67
2022/05/18 01:59:39;;;;;;;;;5.25;5.25;;;;;;;;5058489;28;45614;-67
2022/05/18 02:02:06;;;;;;;;;5.50;5.50;;;;;;;;5059987;28;45491;-67
2022/05/18 02:04:32;;;;;;;;;7.50;6.75;;;;;;;;5069186;28;45415;-67
2022/05/18 02:06:58;;;;;;;;;7.00;6.00;;;;;;;;5054319;28;46179;-67
2022/05/18 02:09:23;;;;;;;;;6.25;5.00;;;;;;;;5059844;28;45415;-66
2022/05/18 02:11:50;;;;;;;;;7.25;7.25;;;;;;;;5058459;28;45257;-66
2022/05/18 02:14:16;;;;;;;;;7.00;5.50;;;;;;;;5057999;28;45316;-66
2022/05/18 02:16:42;;;;;;;;;7.00;6.00;;;;;;;;5057585;28;47220;-66
2022/05/18 02:19:07;;;;;;;;;7.00;6.25;;;;;;;;5056325;28;45429;-67
2022/05/18 02:21:32;;;;;;;;;6.50;6.50;;;;;;;;5056694;28;45490;-67
2022/05/18 02:23:57;;;;;;;;;6.00;6.00;;;;;;;;5059337;28;46124;-67
2022/05/18 02:26:22;;;;;;;;;6.00;6.00;;;;;;;;5057789;28;47491;-67
2022/05/18 02:28:48;;;;;;;;;4.00;4.00;;;;;;;;5057752;28;45411;-67
2022/05/18 02:31:14;;;;;;;;;5.00;3.25;;;;;;;;5060301;28;45467;-67
2022/05/18 02:33:39;;;;;;;;;4.00;3.00;;;;;;;;5055143;28;45300;-66
2022/05/18 02:36:06;;;;;;;;;6.75;4.50;;;;;;;;5059622;28;45617;-66
2022/05/18 02:38:32;;;;;;;;;5.00;4.00;;;;;;;;5060711;28;45328;-66
2022/05/18 02:40:58;;;;;;;;;4.50;4.50;;;;;;;;5057609;28;45624;-65
2022/05/18 02:43:23;;;;;;;;;4.75;4.75;;;;;;;;5057867;28;45483;-66
2022/05/18 02:45:49;;;;;;;;;3.25;3.00;;;;;;;;5053092;28;46097;-66
2022/05/18 02:48:14;;;;;;;;;3.75;3.75;;;;;;;;5059906;28;45263;-65
2022/05/18 02:50:40;;;;;;;;;2.00;2.00;;;;;;;;5057773;28;45281;-67
2022/05/18 02:53:05;;;;;;;;;4.50;3.00;;;;;;;;5057563;28;45803;-67
2022/05/18 02:58:14;;;;;;;;;3.25;1.50;;;;;;;;5055915;28;45373;-67
2022/05/18 03:00:40;;;;;;;;;2.00;2.00;;;;;;;;5054352;28;45293;-67
2022/05/18 03:03:05;;;;;;;;;4.00;4.00;;;;;;;;5059507;28;45496;-67
2022/05/18 03:05:30;;;;;;;;;2.00;2.00;;;;;;;;5057414;28;46168;-67
2022/05/18 03:07:58;;;;;;;;;3.50;2.00;;;;;;;;5057558;28;45655;-67
2022/05/18 03:10:23;;;;;;;;;1.00;1.00;;;;;;;;5057311;28;45397;-67
2022/05/18 03:12:48;;;;;;;;;3.00;1.75;;;;;;;;5053187;28;45336;-67
2022/05/18 03:15:13;;;;;;;;;2.25;1.75;;;;;;;;5058766;28;45641;-67
2022/05/18 03:17:39;;;;;;;;;2.75;2.75;;;;;;;;5057222;28;45793;-67
2022/05/18 03:20:05;;;;;;;;;2.25;2.25;;;;;;;;5057190;28;45444;-67
2022/05/18 03:25:14;;;;;;;;;1.00;1.00;;;;;;;;5055497;28;45702;-67
2022/05/18 03:27:45;;;;;;;;;2.50;1.75;;;;;;;;5054449;28;45401;-67
2022/05/18 03:30:12;;;;;;;;;2.00;2.00;;;;;;;;5059252;28;45437;-67
2022/05/18 03:32:37;;;;;;;;;3.00;2.75;;;;;;;;5058497;28;45446;-67
2022/05/18 03:35:03;;;;;;;;;3.00;3.00;;;;;;;;5060541;27;46153;-67
2022/05/18 03:37:28;;;;;;;;;4.75;3.75;;;;;;;;5063624;28;45508;-67
2022/05/18 03:39:53;;;;;;;;;5.25;4.25;;;;;;;;5056402;28;45732;-67
2022/05/18 03:42:19;;;;;;;;;2.75;2.75;;;;;;;;5062565;28;45290;-67
2022/05/18 03:44:44;;;;;;;;;3.00;3.00;;;;;;;;5059918;28;46756;-67
2022/05/18 03:47:09;;;;;;;;;3.00;3.00;;;;;;;;5060277;28;45490;-67
2022/05/18 03:49:34;;;;;;;;;2.50;2.00;;;;;;;;5060302;28;45389;-67
2022/05/18 03:52:00;;;;;;;;;3.75;2.25;;;;;;;;5056772;28;45492;-67
2022/05/18 03:54:26;;;;;;;;;3.00;3.00;;;;;;;;5060866;28;47082;-67
2022/05/18 03:56:51;;;;;;;;;2.25;2.25;;;;;;;;5059184;28;45304;-66
2022/05/18 03:59:16;;;;;;;;;3.00;3.00;;;;;;;;5059469;27;45497;-66
2022/05/18 04:01:42;;;;;;;;;2.00;2.00;;;;;;;;5042184;28;45595;-67
2022/05/18 04:04:07;;;;;;;;;2.00;2.00;;;;;;;;5055849;28;45420;-67
2022/05/18 04:06:33;;;;;;;;;2.75;2.75;;;;;;;;5058192;28;45297;-67
2022/05/18 04:08:58;;;;;;;;;3.25;3.25;;;;;;;;5060821;28;45557;-67
2022/05/18 04:11:23;;;;;;;;;2.25;2.25;;;;;;;;5059636;28;45778;-68
2022/05/18 04:13:48;;;;;;;;;1.25;1.25;;;;;;;;5061551;27;46090;-67
2022/05/18 04:16:13;;;;;;;;;4.00;2.00;;;;;;;;5058001;28;45453;-67
2022/05/18 04:18:39;;;;;;;;;3.75;3.00;;;;;;;;5072651;28;45644;-67
2022/05/18 04:21:06;;;;;;;;;4.75;3.00;;;;;;;;5061688;28;45444;-67
2022/05/18 04:23:31;;;;;;;;;5.00;3.25;;;;;;;;5059344;28;46942;-67
2022/05/18 04:25:56;;;;;;;;;4.00;4.00;;;;;;;;5059142;28;45233;-67
2022/05/18 04:28:22;;;;;;;;;12.00;11.50;;;;;;;;5058821;28;45296;-67
2022/05/18 04:30:48;;;;;;;;;3.75;3.00;;;;;;;;5056006;28;45938;-67
2022/05/18 04:33:15;;;;;;;;;2.50;2.50;;;;;;;;5060924;28;47219;-67
2022/05/18 04:35:41;;;;;;;;;1.50;1.50;;;;;;;;5061333;28;45402;-67
2022/05/18 04:38:06;;;;;;;;;1.00;1.00;;;;;;;;5059345;27;45478;-67
2022/05/18 04:40:32;;;;;;;;;3.00;3.00;;;;;;;;5059452;28;45542;-67
2022/05/18 04:42:57;;;;;;;;;4.75;3.50;;;;;;;;5055005;28;46930;-67
2022/05/18 04:45:22;;;;;;;;;2.00;2.00;;;;;;;;5060520;28;45329;-67
2022/05/18 04:47:48;;;;;;;;;3.25;1.50;;;;;;;;5058688;28;45400;-67
2022/05/18 04:50:13;;;;;;;;;2.25;2.25;;;;;;;;5058734;28;45566;-67
2022/05/18 04:52:38;;;;;;;;;2.00;2.00;;;;;;;;5058481;28;47111;-67
2022/05/18 04:55:04;;;;;;;;;3.25;3.25;;;;;;;;5055134;28;45391;-68
2022/05/18 04:57:29;;;;;;;;;2.50;2.50;;;;;;;;5058364;28;45343;-67
2022/05/18 04:59:54;;;;;;;;;3.75;2.50;;;;;;;;5059082;28;45477;-67
2022/05/18 05:02:19;;;;;;;;;2.25;1.50;;;;;;;;5040776;28;47551;-68
2022/05/18 05:04:45;;;;;;;;;4.00;3.25;;;;;;;;5059442;28;45523;-66
2022/05/18 05:07:10;;;;;;;;;4.50;2.50;;;;;;;;5057677;28;45273;-66
2022/05/18 05:09:37;;;;;;;;;3.00;3.00;;;;;;;;5071262;27;45364;-66
2022/05/18 05:12:02;;;;;;;;;2.75;2.75;;;;;;;;5069199;27;46413;-66
2022/05/18 05:14:27;;;;;;;;;3.25;2.50;;;;;;;;5064550;27;45419;-68
2022/05/18 05:16:53;;;;;;;;;4.50;4.00;;;;;;;;5066090;28;45500;-68
2022/05/18 05:19:18;;;;;;;;;3.75;3.00;;;;;;;;5058186;28;45478;-66
2022/05/18 05:21:44;;;;;;;;;3.00;2.00;;;;;;;;5055033;28;46176;-67
2022/05/18 05:24:10;;;;;;;;;5.50;5.50;;;;;;;;5064068;28;45473;-68
2022/05/18 05:26:35;;;;;;;;;6.25;5.25;;;;;;;;5052677;28;45387;-66
2022/05/18 05:29:00;;;;;;;;;3.00;3.00;;;;;;;;5038328;28;45319;-67
2022/05/18 05:31:26;;;;;;;;;3.00;2.00;;;;;;;;5048808;28;46963;-67
2022/05/18 05:33:51;;;;;;;;;3.50;1.25;;;;;;;;5044198;28;45434;-67
2022/05/18 05:36:16;;;;;;;;;3.75;2.75;;;;;;;;5060276;28;45475;-66
2022/05/18 05:38:42;;;;;;;;;2.75;0.75;;;;;;;;5038504;28;45363;-67
2022/05/18 05:41:07;;;;;;;;;4.00;4.00;;;;;;;;5042850;28;45963;-67
2022/05/18 05:43:32;;;;;;;;;5.50;4.75;;;;;;;;5040848;28;45332;-67
2022/05/18 05:46:02;;;;;;;;;4.75;3.00;;;;;;;;5040051;28;45334;-67
2022/05/18 05:48:30;;;;;;;;;9.00;5.00;;;;;;;;5040871;28;45460;-67
2022/05/18 05:50:55;;;;;;;;;8.00;4.75;;;;;;;;5053332;28;46401;-67
2022/05/18 05:53:20;;;;;;;;;2.00;2.00;;;;;;;;5047977;28;45424;-67
2022/05/18 05:55:45;;;;;;;;;1.00;1.00;;;;;;;;5050873;28;45905;-65
2022/05/18 05:58:11;;;;;;;;;5.25;3.50;;;;;;;;5049513;28;45731;-68
2022/05/18 06:00:36;;;;;;;;;3.00;3.00;;;;;;;;5058506;27;46909;-68
2022/05/18 06:03:02;;;;;;;;;4.75;3.25;;;;;;;;5056953;28;45471;-68
2022/05/18 06:05:28;;;;;;;;;2.00;2.00;;;;;;;;5061750;27;45445;-68
2022/05/18 06:07:53;;;;;;;;;5.50;5.50;;;;;;;;5053910;28;45514;-68
2022/05/18 06:10:20;;;;;;;;;2.00;2.00;;;;;;;;5048984;28;45361;-68
2022/05/18 06:12:45;;;;;;;;;2.00;1.25;;;;;;;;5050958;28;45364;-66
2022/05/18 06:15:10;;;;;;;;;5.00;3.00;;;;;;;;5049429;28;45366;-66
2022/05/18 06:17:35;;;;;;;;;3.00;1.75;;;;;;;;5048747;28;45456;-66
2022/05/18 06:20:01;;;;;;;;;3.00;3.00;;;;;;;;5047785;28;45411;-66
2022/05/18 06:22:26;;;;;;;;;1.50;1.50;;;;;;;;5047389;28;45450;-65
2022/05/18 06:24:52;;;;;;;;;0.25;0.25;;;;;;;;5051811;28;45316;-66
2022/05/18 06:27:20;;;;;;;;;0.50;0.50;;;;;;;;5062002;27;45552;-64
2022/05/18 06:29:47;;;;;;;;;3.00;1.00;;;;;;;;5047339;28;45486;-66
2022/05/18 06:32:13;;;;;;;;;1.00;1.00;;;;;;;;5029159;28;45403;-65
2022/05/18 06:34:39;;;;;;;;;3.75;2.75;;;;;;;;5053545;28;45321;-65
2022/05/18 06:37:04;;;;;;;;;7.75;6.75;;;;;;;;5051514;28;49249;-66
2022/05/18 06:39:29;;;;;;;;;14.00;10.00;;;;;;;;5056453;28;46016;-66
2022/05/18 06:41:56;;;;;;;;;5.00;2.25;;;;;;;;5056965;27;45313;-66
2022/05/18 06:44:23;;;;;;;;;4.00;4.00;;;;;;;;5062572;28;45305;-66
2022/05/18 06:46:49;;;;;;;;;6.00;4.00;;;;;;;;5063989;28;45485;-66
2022/05/18 06:49:14;;;;;;;;;4.00;4.00;;;;;;;;5065379;27;46788;-66
2022/05/18 06:51:41;;;;;;;;;3.75;3.75;;;;;;;;5054487;27;45577;-66
2022/05/18 06:54:07;;;;;;;;;8.25;4.75;;;;;;;;5054760;28;45543;-66
2022/05/18 06:56:34;;;;;;;;;6.75;5.75;;;;;;;;5053248;27;45446;-66
2022/05/18 06:59:00;;;;;;;;;3.50;1.50;;;;;;;;5042181;28;45391;-65
2022/05/18 07:01:26;;;;;;;;;5.75;4.50;;;;;;;;5037820;28;46221;-66
2022/05/18 07:03:51;;;;;;;;;7.75;5.25;;;;;;;;5048296;28;45350;-66
2022/05/18 07:06:18;;;;;;;;;1.00;1.00;;;;;;;;5038173;28;45249;-66
2022/05/18 07:08:43;;;;;;;;;4.00;2.00;;;;;;;;5047983;28;45706;-67
2022/05/18 07:11:08;;;;;;;;;4.00;4.00;;;;;;;;5050867;28;45435;-67
2022/05/18 07:13:38;;;;;;;;;4.50;1.50;;;;;;;;5051914;28;45432;-66
2022/05/18 07:16:03;;;;;;;;;2.00;2.00;;;;;;;;5039341;28;45328;-65
2022/05/18 07:18:29;;;;;;;;;1.00;1.00;;;;;;;;5039796;28;47155;-66
2022/05/18 07:20:55;;;;;;;;;2.75;1.50;;;;;;;;5041632;28;45390;-66
2022/05/18 07:23:20;;;;;;;;;3.25;1.50;;;;;;;;5051247;28;45795;-66
2022/05/18 07:25:46;;;;;;;;;1.00;1.00;;;;;;;;5050378;28;45574;-66
2022/05/18 07:28:12;;;;;;;;;1.00;1.00;;;;;;;;5052195;28;45517;-67
2022/05/18 07:30:37;;;;;;;;;4.75;3.00;;;;;;;;5053315;28;45483;-66
2022/05/18 07:33:02;;;;;;;;;0.00;0.00;;;;;;;;5060709;28;45481;-66
2022/05/18 07:35:28;;;;;;;;;1.50;1.25;;;;;;;;5061862;28;45635;-66
2022/05/18 07:37:54;;;;;;;;;3.00;2.00;;;;;;;;5059297;28;47660;-66
2022/05/18 07:40:19;;;;;;;;;3.75;2.00;;;;;;;;5062155;28;45411;-66
2022/05/18 07:42:44;;;;;;;;;1.25;1.25;;;;;;;;5066747;28;45513;-66
2022/05/18 07:45:09;;;;;;;;;2.00;1.00;;;;;;;;5058762;27;45375;-65
2022/05/18 07:47:35;;;;;;;;;3.00;2.00;;;;;;;;5067695;28;46418;-66
2022/05/18 07:50:00;;;;;;;;;2.00;2.00;;;;;;;;5065577;28;45468;-65
2022/05/18 07:52:25;;;;;;;;;1.50;1.50;;;;;;;;5059191;27;45468;-65
2022/05/18 07:54:51;;;;;;;;;1.25;1.25;;;;;;;;5055577;28;45913;-65
2022/05/18 07:57:17;;;;;;;;;2.00;2.00;;;;;;;;5053557;27;45913;-65
2022/05/18 07:59:42;;;;;;;;;3.25;3.25;;;;;;;;5057732;28;45474;-66
2022/05/18 08:02:07;;;;;;;;;4.00;2.25;;;;;;;;5064608;27;45447;-68
2022/05/18 08:04:33;;;;;;;;;2.25;2.25;;;;;;;;5052046;28;45376;-67
2022/05/18 08:06:58;;;;;;;;;6.25;4.00;;;;;;;;5053555;28;45980;-67
2022/05/18 08:09:23;;;;;;;;;6.00;4.75;;;;;;;;5051759;28;45407;-68
2022/05/18 08:17:17;;;;;;;;;2.25;2.25;;;;;;;;5048971;28;45758;-68
2022/05/18 08:19:43;;;;;;;;;5.50;4.50;;;;;;;;5043877;28;45536;-68
2022/05/18 08:22:08;;;;;;;;;3.00;3.00;;;;;;;;5046195;28;45455;-67
2022/05/18 08:24:36;;;;;;;;;2.00;2.00;;;;;;;;5057988;27;45443;-68
2022/05/18 08:27:01;;;;;;;;;3.50;3.25;;;;;;;;5055977;28;46324;-67
2022/05/18 08:29:27;;;;;;;;;1.25;1.25;;;;;;;;5053862;28;45301;-67
2022/05/18 08:31:52;;;;;;;;;3.25;3.25;;;;;;;;5057896;27;45344;-68
2022/05/18 08:34:18;;;;;;;;;3.25;2.25;;;;;;;;5047475;28;45456;-69
2022/05/18 08:36:43;;;;;;;;;3.00;2.00;;;;;;;;5042550;28;45976;-66
2022/05/18 08:39:09;;;;;;;;;2.25;2.25;;;;;;;;5042432;28;45352;-67
2022/05/18 08:41:40;;;;;;;;;2.00;2.00;;;;;;;;5052211;28;45284;-66
2022/05/18 08:44:07;;;;;;;;;2.25;2.25;;;;;;;;5044596;28;45278;-66
2022/05/18 08:46:42;;;;;;;;;5.00;3.75;;;;;;;;5048163;28;45394;-66
2022/05/18 08:49:08;;;;;;;;;2.75;2.75;;;;;;;;5054179;28;45462;-70
2022/05/18 08:51:45;;;;;;;;;4.50;4.00;;;;;;;;5050689;28;45352;-68
2022/05/18 08:54:23;;;;;;;;;3.50;3.50;;;;;;;;5052524;28;45501;-68
2022/05/18 08:56:49;;;;;;;;;5.25;4.25;;;;;;;;5052246;28;48580;-68
2022/05/18 08:59:18;;;;;;;;;11.00;10.00;;;;;;;;5057483;28;45478;-68
2022/05/18 09:01:46;;;;;;;;;7.50;6.50;;;;;;;;5054974;28;45504;-65
2022/05/18 09:04:11;;;;;;;;;4.00;3.50;;;;;;;;5063678;28;45431;-68
2022/05/18 09:06:45;;;;;;;;;4.50;4.50;;;;;;;;5066382;28;47358;-68
2022/05/18 09:12:01;;;;;;;;;2.00;2.00;;;;;;;;5054840;28;45487;-68
2022/05/18 09:14:27;;;;;;;;;7.75;3.75;;;;;;;;5009113;28;1168160;-67
2022/05/18 09:16:56;;;;;;;;;3.00;3.00;;;;;;;;5054227;28;45476;-68
2022/05/18 09:19:42;;;;;;;;;2.75;2.75;;;;;;;;5051132;28;45545;-69
2022/05/18 09:22:10;;;;;;;;;2.00;2.00;;;;;;;;5049168;28;45482;-68
2022/05/18 09:24:54;;;;;;;;;12.00;10.75;;;;;;;;5054134;28;45503;-68
2022/05/18 09:27:27;;;;;;;;;16.00;15.00;;;;;;;;5052544;28;46141;-68
2022/05/18 09:29:55;;;;;;;;;4.25;4.25;;;;;;;;5050594;28;45486;-68
2022/05/18 09:32:29;;;;;;;;;2.75;2.75;;;;;;;;5051233;28;45657;-68
2022/05/18 09:34:57;;;;;;;;;3.75;3.75;;;;;;;;5052216;28;45492;-69
2022/05/18 09:37:26;;;;;;;;;4.75;3.00;;;;;;;;5048350;28;47389;-68
2022/05/18 09:39:57;;;;;;;;;3.25;3.25;;;;;;;;5041341;28;45457;-69
2022/05/18 09:42:25;;;;;;;;;4.00;4.00;;;;;;;;5042005;28;45362;-68
2022/05/18 09:44:56;;;;;;;;;9.00;9.00;;;;;;;;5043926;28;45882;-68
2022/05/18 09:47:23;;;;;;;;;5.00;5.00;;;;;;;;5044523;28;45537;-69
2022/05/18 09:49:51;;;;;;;;;5.75;5.00;;;;;;;;5055534;27;45494;-69
2022/05/18 09:52:18;;;;;;;;;5.00;5.00;;;;;;;;5023121;28;45406;-69
2022/05/18 09:54:43;;;;;;;;;5.00;5.00;;;;;;;;5054016;28;45539;-69
2022/05/18 09:57:13;;;;;;;;;6.25;4.50;;;;;;;;5059290;28;45254;-69
2022/05/18 10:00:00;;;;;;;;;5.75;4.00;;;;;;;;5056785;28;45681;-69
2022/05/18 10:07:56;;;;;;;;;5.00;5.00;;;;;;;;5050094;28;45712;-67
2022/05/18 10:10:27;;;;;;;;;6.75;6.75;;;;;;;;5047135;28;45522;-67
2022/05/18 10:12:52;;;;;;;;;6.33;3.67;;;;;;;;5044554;28;45488;-67
2022/05/18 10:15:28;;;;;;;;;10.25;10.25;;;;;;;;5043945;28;45597;-67
2022/05/18 10:17:54;;;;;;;;;7.00;5.00;;;;;;;;5049956;28;46647;-69
2022/05/18 10:20:49;;;;;;;;;6.75;5.00;;;;;;;;5049274;28;45757;-68
2022/05/18 10:23:47;;;;;;;;;5.50;5.50;;;;;;;;4981229;28;45535;-69
2022/05/18 10:26:22;;;;;;;;;4.67;3.00;;;;;;;;4949971;28;45356;-68
2022/05/18 10:28:52;;;;;;;;;7.00;5.50;;;;;;;;4938937;28;46655;-68
2022/05/18 10:31:33;;;;;;;;;43.75;36.00;;;;;;;;4953521;28;45422;-68
2022/05/18 10:34:13;;;;;;;;;3.00;3.00;;;;;;;;4954022;28;45620;-76
2022/05/18 10:36:43;;;;;;;;;3.67;3.67;;;;;;;;4947422;28;45675;-68
2022/05/18 10:39:08;;;;;;;;;6.50;4.50;;;;;;;;4950691;28;47406;-68
2022/05/18 10:41:41;;;;;;;;;6.50;5.50;;;;;;;;4949935;28;45447;-68
2022/05/18 10:44:16;;;;;;;;;3.33;2.67;;;;;;;;4950373;28;45791;-68
2022/05/18 10:46:48;;;;;;;;;3.00;3.00;;;;;;;;4944874;28;45477;-68
2022/05/18 10:49:19;;;;;;;;;3.00;2.00;;;;;;;;4946356;28;46883;-68
2022/05/18 10:51:45;;;;;;;;;4.00;3.00;;;;;;;;4942848;28;45499;-68
2022/05/18 10:54:16;;;;;;;;;6.00;4.00;;;;;;;;4945697;28;45564;-66
2022/05/18 10:56:42;;;;;;;;;4.00;4.00;;;;;;;;4948753;28;45606;-68
2022/05/18 10:59:25;;;;;;;;;3.67;3.67;;;;;;;;4959680;28;46440;-68
2022/05/18 11:01:54;;;;;;;;;5.67;5.67;;;;;;;;5020708;28;46059;-68
2022/05/18 11:04:30;;;;;;;;;3.75;3.00;;;;;;;;5047577;28;45536;-68
2022/05/18 11:06:55;;;;;;;;;3.00;3.00;;;;;;;;5042730;28;45415;-69
2022/05/18 11:09:31;;;;;;;;;6.75;6.75;;;;;;;;5052327;28;46288;-69
2022/05/18 11:11:57;;;;;;;;;5.75;5.75;;;;;;;;5044131;28;45499;-69
2022/05/18 11:14:22;;;;;;;;;4.75;4.75;;;;;;;;5048868;28;45557;-69
2022/05/18 11:16:47;;;;;;;;;2.00;2.00;;;;;;;;5061131;28;45417;-68
2022/05/18 11:19:22;;;;;;;;;4.00;4.00;;;;;;;;5048388;28;46042;-68
2022/05/18 11:22:05;;;;;;;;;3.25;2.50;;;;;;;;5039062;28;45414;-66
2022/05/18 11:24:39;;;;;;;;;3.00;3.00;;;;;;;;5045243;28;45586;-68
2022/05/18 11:27:25;;;;;;;;;3.33;3.33;;;;;;;;5042998;28;45588;-68
2022/05/18 11:29:56;;;;;;;;;3.67;3.00;;;;;;;;5044569;28;46464;-69
2022/05/18 11:32:21;;;;;;;;;2.00;2.00;;;;;;;;5047703;28;45430;-67
2022/05/18 11:34:56;;;;;;;;;2.00;2.00;;;;;;;;5057777;28;45569;-67
2022/05/18 11:37:40;;;;;;;;;5.33;5.00;;;;;;;;5038608;28;45507;-66
2022/05/18 11:40:24;;;;;;;;;2.00;2.00;;;;;;;;5040708;28;46188;-66
2022/05/18 11:43:28;;;;;;;;;4.00;4.00;;;;;;;;5050384;28;45312;-69
2022/05/18 11:45:56;;;;;;;;;4.00;4.00;;;;;;;;5057011;28;45531;-67
2022/05/18 11:48:21;;;;;;;;;3.33;3.33;;;;;;;;5057945;28;45379;-69
2022/05/18 11:51:05;;;;;;;;;6.25;5.25;;;;;;;;5058474;28;47160;-69
2022/05/18 11:53:49;;;;;;;;;2.00;2.00;;;;;;;;5036601;28;45421;-69
2022/05/18 11:56:37;;;;;;;;;4.75;4.00;;;;;;;;5053717;28;45261;-68
2022/05/18 12:01:43;;;;;;;;;4.67;3.33;;;;;;;;5059035;28;45198;-68
2022/05/18 12:04:31;;;;;;;;;5.00;4.00;;;;;;;;5058852;28;45249;-69
2022/05/18 12:07:01;;;;;;;;;1.00;1.00;;;;;;;;5052195;28;45316;-68
2022/05/18 12:09:33;;;;;;;;;2.33;2.33;;;;;;;;5058513;28;45302;-69
2022/05/18 12:11:58;;;;;;;;;1.67;1.67;;;;;;;;5062481;27;46555;-68
2022/05/18 12:14:42;;;;;;;;;7.75;5.25;;;;;;;;5065221;27;45628;-68
2022/05/18 12:17:07;;;;;;;;;2.67;2.67;;;;;;;;5056695;28;45505;-69
2022/05/18 12:19:35;;;;;;;;;1.67;1.67;;;;;;;;5059611;28;45494;-67
2022/05/18 12:22:06;;;;;;;;;2.50;2.50;;;;;;;;5058573;28;47357;-66
2022/05/18 12:24:32;;;;;;;;;4.50;4.50;;;;;;;;5066466;28;45585;-67
2022/05/18 12:26:58;;;;;;;;;1.33;1.33;;;;;;;;5057772;28;45546;-68
2022/05/18 12:29:24;;;;;;;;;2.33;2.33;;;;;;;;5057140;28;45598;-67
2022/05/18 12:31:51;;;;;;;;;2.67;2.67;;;;;;;;5060035;28;46968;-67
2022/05/18 12:34:22;;;;;;;;;3.75;3.75;;;;;;;;5064240;28;45598;-68
2022/05/18 12:37:01;;;;;;;;;2.50;2.50;;;;;;;;5067437;27;45383;-68
2022/05/18 12:39:29;;;;;;;;;15.75;13.00;;;;;;;;5067086;27;45292;-69
2022/05/18 12:41:55;;;;;;;;;23.25;18.25;;;;;;;;5071225;28;46387;-68
2022/05/18 12:44:40;;;;;;;;;1.33;1.33;;;;;;;;5054914;28;45409;-68
2022/05/18 12:47:25;;;;;;;;;2.00;1.75;;;;;;;;5053711;28;45303;-67
2022/05/18 12:49:55;;;;;;;;;3.25;3.00;;;;;;;;5064271;28;45412;-68
2022/05/18 12:52:29;;;;;;;;;3.00;3.00;;;;;;;;5058406;27;45755;-67
2022/05/18 12:54:59;;;;;;;;;3.25;3.25;;;;;;;;5058845;28;45423;-68
2022/05/18 12:57:44;;;;;;;;;1.25;1.25;;;;;;;;5065577;27;45371;-68
2022/05/18 13:00:24;;;;;;;;;4.00;3.00;;;;;;;;5039727;28;46115;-67
2022/05/18 13:02:57;;;;;;;;;4.25;3.00;;;;;;;;5066676;28;45598;-67
2022/05/18 13:05:25;;;;;;;;;1.75;1.75;;;;;;;;5053629;28;45579;-68
2022/05/18 13:07:51;;;;;;;;;3.25;3.00;;;;;;;;5060795;28;45321;-68
2022/05/18 13:10:17;;;;;;;;;2.50;1.00;;;;;;;;5057245;28;45479;-68
2022/05/18 13:12:56;;;;;;;;;3.00;2.00;;;;;;;;5056753;28;47736;-68
2022/05/18 13:15:38;;;;;;;;;2.25;1.00;;;;;;;;5057297;27;45414;-67
2022/05/18 13:18:24;;;;;;;;;1.25;1.00;;;;;;;;5058109;28;45518;-68
2022/05/18 13:21:09;;;;;;;;;4.00;2.00;;;;;;;;5048350;27;45672;-67
2022/05/18 13:23:55;;;;;;;;;6.00;5.50;;;;;;;;5028050;28;46776;-67
2022/05/18 13:26:21;;;;;;;;;2.25;2.25;;;;;;;;5054513;28;45474;-67
2022/05/18 13:28:47;;;;;;;;;1.75;1.00;;;;;;;;5073737;28;45410;-67
2022/05/18 13:31:14;;;;;;;;;1.25;1.00;;;;;;;;5059290;28;45440;-68
2022/05/18 13:33:52;;;;;;;;;3.00;3.00;;;;;;;;5061143;28;47021;-67
2022/05/18 13:36:34;;;;;;;;;0.75;0.75;;;;;;;;5064986;28;45312;-68
2022/05/18 13:39:07;;;;;;;;;0.00;0.00;;;;;;;;5056881;27;45872;-67
2022/05/18 13:41:33;;;;;;;;;2.00;2.00;;;;;;;;5038311;28;45623;-68
2022/05/18 13:44:01;;;;;;;;;1.00;1.00;;;;;;;;5057805;28;45620;-67
2022/05/18 13:46:27;;;;;;;;;1.50;1.50;;;;;;;;5055974;28;45585;-67
2022/05/18 13:48:56;;;;;;;;;1.50;1.50;;;;;;;;5060600;28;45392;-67
2022/05/18 13:51:23;;;;;;;;;1.00;0.75;;;;;;;;5058260;28;45531;-67
2022/05/18 13:53:57;;;;;;;;;1.50;1.50;;;;;;;;5054857;28;45375;-67
2022/05/18 13:56:25;;;;;;;;;1.00;1.00;;;;;;;;5052812;28;45493;-67
2022/05/18 13:58:53;;;;;;;;;1.00;1.00;;;;;;;;5060493;28;45476;-67
2022/05/18 14:01:22;;;;;;;;;1.50;1.50;;;;;;;;5057917;28;45677;-68
2022/05/18 14:03:49;;;;;;;;;3.50;2.50;;;;;;;;5056488;28;46145;-67
2022/05/18 14:06:17;;;;;;;;;1.75;1.75;;;;;;;;5052259;28;45518;-67
2022/05/18 14:08:43;;;;;;;;;0.75;0.75;;;;;;;;5046752;28;45316;-67
2022/05/18 14:11:12;;;;;;;;;2.00;2.00;;;;;;;;5057062;28;45400;-67
2022/05/18 14:13:38;;;;;;;;;1.75;1.75;;;;;;;;5055639;28;46457;-68
2022/05/18 14:16:04;;;;;;;;;2.00;2.00;;;;;;;;5058015;28;45738;-67
2022/05/18 14:18:39;;;;;;;;;2.75;2.75;;;;;;;;5063682;28;45501;-67
2022/05/18 14:21:09;;;;;;;;;1.25;1.25;;;;;;;;5056432;28;45483;-67
2022/05/18 14:23:37;;;;;;;;;1.00;1.00;;;;;;;;5058752;27;47082;-67
2022/05/18 14:26:04;;;;;;;;;2.00;2.00;;;;;;;;5058330;28;45456;-67
2022/05/18 14:28:35;;;;;;;;;0.00;0.00;;;;;;;;5064525;28;45386;-67
2022/05/18 14:31:03;;;;;;;;;2.75;0.75;;;;;;;;5059810;28;45682;-67
2022/05/18 14:33:31;;;;;;;;;1.00;1.00;;;;;;;;5055005;27;46077;-67
2022/05/18 14:36:00;;;;;;;;;4.25;3.00;;;;;;;;5053283;28;45298;-67
2022/05/18 14:38:29;;;;;;;;;0.00;0.00;;;;;;;;5042026;28;45389;-67
2022/05/18 14:40:56;;;;;;;;;1.00;1.00;;;;;;;;5057969;28;45471;-67
2022/05/18 14:43:24;;;;;;;;;4.25;3.00;;;;;;;;5057756;27;46693;-67
2022/05/18 14:45:54;;;;;;;;;1.25;1.25;;;;;;;;5057431;28;45538;-67
2022/05/18 14:48:20;;;;;;;;;0.00;0.00;;;;;;;;5056178;28;45333;-67
2022/05/18 14:50:46;;;;;;;;;0.25;0.00;;;;;;;;5054374;27;45373;-67
2022/05/18 14:53:20;;;;;;;;;0.00;0.00;;;;;;;;5058454;28;46417;-67
2022/05/18 14:55:49;;;;;;;;;2.50;2.50;;;;;;;;5058371;28;45399;-67
2022/05/18 14:58:20;;;;;;;;;3.00;1.00;;;;;;;;5056547;28;45840;-67
2022/05/18 15:00:48;;;;;;;;;2.75;2.75;;;;;;;;5056388;27;45439;-67
2022/05/18 15:03:16;;;;;;;;;1.75;1.75;;;;;;;;5057059;28;46351;-67
2022/05/18 15:05:43;;;;;;;;;10.50;10.00;;;;;;;;5052679;28;45589;-67
2022/05/18 15:08:17;;;;;;;;;1.75;1.75;;;;;;;;5057963;27;45570;-67
2022/05/18 15:10:51;;;;;;;;;6.00;5.50;;;;;;;;5083983;27;45662;-67
2022/05/18 15:13:23;;;;;;;;;4.00;2.50;;;;;;;;5055647;28;45438;-66